FH16Y LDSP-LDSB
Flight info
| Callsign | FH16Y |
|---|---|
| Flight time | N/A |
| Altitude | 18000 |
| Route | SIPAL |
| Aircraft | C750/M-SBDE3FGHRWXY/S |
Departure
| Time | N/A |
|---|---|
| Airport | Split Saint Jerome Airport (LDSP) |
Arrival
| Time | 2026-05-03 20:27 |
|---|---|
| Airport | Brač Airport (LDSB) |
| Time | Latitude | Longitude | Altitude | Speed | Heading |
|---|---|---|---|---|---|
| 2026-05-03 20:15 | 43.33916 | 16.79588 | 6271 ft | 246 kts | 134° |
| 2026-05-03 20:15 | 43.32694 | 16.81272 | 5912 ft | 250 kts | 134° |
| 2026-05-03 20:15 | 43.31472 | 16.82955 | 5558 ft | 247 kts | 134° |
| 2026-05-03 20:15 | 43.30266 | 16.84615 | 5208 ft | 244 kts | 134° |
| 2026-05-03 20:16 | 43.29077 | 16.86250 | 4859 ft | 241 kts | 134° |
| 2026-05-03 20:16 | 43.27904 | 16.87862 | 4587 ft | 237 kts | 134° |
| 2026-05-03 20:16 | 43.26738 | 16.89463 | 4325 ft | 237 kts | 134° |
| 2026-05-03 20:16 | 43.25571 | 16.91068 | 4093 ft | 238 kts | 134° |
| 2026-05-03 20:17 | 43.24413 | 16.92656 | 4020 ft | 232 kts | 134° |
| 2026-05-03 20:17 | 43.23253 | 16.94246 | 4031 ft | 250 kts | 134° |
| 2026-05-03 20:17 | 43.21975 | 16.96002 | 4035 ft | 261 kts | 134° |
| 2026-05-03 20:17 | 43.20681 | 16.97773 | 4038 ft | 264 kts | 134° |
| 2026-05-03 20:18 | 43.19395 | 16.99531 | 4035 ft | 265 kts | 134° |
| 2026-05-03 20:18 | 43.18088 | 17.01307 | 4033 ft | 265 kts | 135° |
| 2026-05-03 20:18 | 43.16519 | 17.02605 | 3965 ft | 266 kts | 163° |
| 2026-05-03 20:18 | 43.14677 | 17.02677 | 3992 ft | 268 kts | 192° |
| 2026-05-03 20:19 | 43.13038 | 17.01527 | 4001 ft | 269 kts | 222° |
| 2026-05-03 20:19 | 43.12005 | 16.99451 | 4007 ft | 264 kts | 250° |
| 2026-05-03 20:19 | 43.11467 | 16.97047 | 4048 ft | 265 kts | 256° |
| 2026-05-03 20:19 | 43.10973 | 16.94620 | 4038 ft | 263 kts | 256° |
| 2026-05-03 20:20 | 43.10466 | 16.92213 | 4034 ft | 263 kts | 255° |
| 2026-05-03 20:20 | 43.09949 | 16.89795 | 4028 ft | 268 kts | 255° |
| 2026-05-03 20:20 | 43.09432 | 16.87369 | 4026 ft | 268 kts | 255° |
| 2026-05-03 20:20 | 43.08926 | 16.84922 | 4022 ft | 267 kts | 257° |
| 2026-05-03 20:21 | 43.08898 | 16.82418 | 4001 ft | 263 kts | 279° |
| 2026-05-03 20:21 | 43.09153 | 16.79920 | 4027 ft | 265 kts | 279° |
| 2026-05-03 20:21 | 43.09372 | 16.77412 | 4027 ft | 265 kts | 278° |
| 2026-05-03 20:21 | 43.09583 | 16.74904 | 4017 ft | 265 kts | 278° |
| 2026-05-03 20:22 | 43.09805 | 16.72399 | 4024 ft | 265 kts | 278° |
| 2026-05-03 20:22 | 43.10028 | 16.69899 | 4021 ft | 265 kts | 278° |
| 2026-05-03 20:22 | 43.10246 | 16.67418 | 4021 ft | 262 kts | 278° |
| 2026-05-03 20:22 | 43.10518 | 16.64954 | 3996 ft | 261 kts | 286° |
| 2026-05-03 20:23 | 43.11381 | 16.62816 | 4008 ft | 257 kts | 307° |
| 2026-05-03 20:23 | 43.12435 | 16.60808 | 4021 ft | 259 kts | 306° |
| 2026-05-03 20:23 | 43.13522 | 16.58838 | 3990 ft | 260 kts | 315° |
| 2026-05-03 20:23 | 43.15053 | 16.57611 | 3998 ft | 248 kts | 342° |
| 2026-05-03 20:24 | 43.16672 | 16.57393 | 3996 ft | 224 kts | 5° |
| 2026-05-03 20:24 | 43.18076 | 16.57956 | 3956 ft | 204 kts | 23° |
| 2026-05-03 20:24 | 43.19283 | 16.58979 | 3741 ft | 206 kts | 34° |
| 2026-05-03 20:24 | 43.20415 | 16.60201 | 3513 ft | 204 kts | 36° |
| 2026-05-03 20:25 | 43.21507 | 16.61328 | 3242 ft | 191 kts | 31° |
| 2026-05-03 20:25 | 43.22573 | 16.62274 | 3054 ft | 174 kts | 30° |
| 2026-05-03 20:25 | 43.23532 | 16.63143 | 2844 ft | 160 kts | 31° |
| 2026-05-03 20:25 | 43.24413 | 16.63983 | 2540 ft | 146 kts | 32° |
| 2026-05-03 20:26 | 43.25200 | 16.64758 | 2288 ft | 139 kts | 33° |
| 2026-05-03 20:26 | 43.25984 | 16.65506 | 2096 ft | 134 kts | 30° |
| 2026-05-03 20:26 | 43.26733 | 16.66210 | 2022 ft | 126 kts | 31° |
| 2026-05-03 20:26 | 43.27443 | 16.66888 | 1892 ft | 125 kts | 31° |
| 2026-05-03 20:27 | 43.28150 | 16.67567 | 1745 ft | 117 kts | 32° |
| 2026-05-03 20:27 | 43.28769 | 16.68158 | 1716 ft | 101 kts | 35° |
| 2026-05-03 20:27 | 43.29162 | 16.68525 | 1683 ft | 27 kts | 21° |
| 2026-05-03 20:27 | 43.29197 | 16.68538 | 1677 ft | 0 kts | 352° |
| 2026-05-03 20:28 | 43.29201 | 16.68537 | 1678 ft | 0 kts | 342° |
| 2026-05-03 20:29 | 43.29202 | 16.68536 | 1677 ft | 0 kts | 336° |